createdAt,value
2017-08-01T00:01:52.930Z,75.90
2017-08-01T00:04:20.518Z,75.90
2017-08-01T00:06:48.085Z,75.90
2017-08-01T00:09:15.624Z,76.50
2017-08-01T00:11:43.188Z,77.10
2017-08-01T00:14:10.720Z,77.30
2017-08-01T00:16:38.479Z,77.70
2017-08-01T00:19:06.016Z,77.70
2017-08-01T00:21:33.569Z,78.50
2017-08-01T00:24:01.148Z,78.10
2017-08-01T00:26:28.689Z,78.50
2017-08-01T00:28:56.297Z,78.40
2017-08-01T00:31:23.840Z,79.00
2017-08-01T00:33:51.517Z,79.10
2017-08-01T00:36:19.111Z,79.40
2017-08-01T00:38:47.418Z,79.00
2017-08-01T00:41:14.959Z,79.50
2017-08-01T00:43:42.554Z,79.30
2017-08-01T00:46:10.090Z,79.80
2017-08-01T00:48:37.642Z,79.50
2017-08-01T00:51:05.306Z,80.00
2017-08-01T00:53:32.848Z,80.00
2017-08-01T00:56:00.425Z,80.40
2017-08-01T00:58:27.999Z,80.30
2017-08-01T01:00:55.632Z,80.40
2017-08-01T01:03:23.230Z,80.60
2017-08-01T01:05:50.777Z,80.50
2017-08-01T01:08:18.325Z,80.60
2017-08-01T01:10:45.908Z,81.00
2017-08-01T01:13:13.435Z,81.00
2017-08-01T01:15:40.992Z,80.90
2017-08-01T01:18:08.554Z,80.50
2017-08-01T01:20:36.111Z,80.70
2017-08-01T01:23:03.688Z,80.50
2017-08-01T01:25:31.239Z,80.50
2017-08-01T01:27:58.828Z,80.30
2017-08-01T01:30:26.405Z,80.30
2017-08-01T01:32:54.721Z,80.60
2017-08-01T01:35:22.310Z,80.40
2017-08-01T01:37:49.859Z,80.00
2017-08-01T01:40:17.449Z,80.50
2017-08-01T01:42:45.786Z,80.60
2017-08-01T01:45:13.328Z,80.50
2017-08-01T01:47:40.928Z,80.70
2017-08-01T01:50:08.464Z,80.70
2017-08-01T01:52:36.009Z,81.10
2017-08-01T01:55:03.579Z,80.90
2017-08-01T01:57:31.161Z,81.20
2017-08-01T01:59:59.285Z,81.50
2017-08-01T02:02:26.976Z,81.00
2017-08-01T02:04:54.603Z,81.30
2017-08-01T02:07:22.199Z,80.70
2017-08-01T02:09:49.752Z,81.60
2017-08-01T02:12:17.329Z,82.20
2017-08-01T02:14:44.882Z,81.60
2017-08-01T02:17:12.449Z,82.00
2017-08-01T02:19:40.794Z,80.80
2017-08-01T02:22:08.337Z,80.80
2017-08-01T02:24:35.881Z,80.30
2017-08-01T02:27:03.458Z,80.00
2017-08-01T02:29:30.995Z,79.90
2017-08-01T02:31:58.592Z,80.20
2017-08-01T02:34:26.207Z,83.10
2017-08-01T02:36:53.742Z,85.10
2017-08-01T02:39:22.069Z,86.70
2017-08-01T02:41:49.625Z,86.70
2017-08-01T02:44:17.222Z,87.50
2017-08-01T02:46:45.574Z,89.60
2017-08-01T02:49:13.122Z,88.90
2017-08-01T02:51:40.701Z,89.30
2017-08-01T02:54:08.262Z,90.00
2017-08-01T02:56:35.813Z,90.00
2017-08-01T02:59:03.403Z,90.30
2017-08-01T03:01:31.720Z,90.50
2017-08-01T03:03:59.304Z,90.50
2017-08-01T03:06:26.853Z,90.50
2017-08-01T03:08:54.431Z,90.50
2017-08-01T03:11:21.973Z,90.60
2017-08-01T03:13:49.692Z,90.70
2017-08-01T03:16:17.278Z,90.60
2017-08-01T03:18:44.849Z,90.60
2017-08-01T03:21:12.510Z,90.50
2017-08-01T03:23:40.061Z,90.60
2017-08-01T03:26:07.647Z,90.70
2017-08-01T03:28:35.197Z,90.70
2017-08-01T03:31:02.745Z,90.80
2017-08-01T03:33:30.329Z,90.80
2017-08-01T03:35:57.883Z,90.60
2017-08-01T03:38:25.496Z,90.60
2017-08-01T03:40:53.044Z,90.70
2017-08-01T03:43:20.607Z,90.70
2017-08-01T03:45:48.184Z,90.60
2017-08-01T03:48:15.742Z,90.70
2017-08-01T03:50:43.287Z,90.80
2017-08-01T03:53:10.978Z,90.70
2017-08-01T03:55:38.517Z,90.70
2017-08-01T03:58:06.166Z,90.70
2017-08-01T04:00:33.826Z,90.60
2017-08-01T04:03:01.460Z,90.60
2017-08-01T04:05:29.157Z,90.70
2017-08-01T04:07:56.753Z,90.70
2017-08-01T04:10:24.431Z,90.60
2017-08-01T04:12:52.779Z,90.50
2017-08-01T04:15:20.488Z,90.50
2017-08-01T04:17:48.104Z,90.60
2017-08-01T04:20:15.768Z,90.60
2017-08-01T04:22:43.321Z,90.60
2017-08-01T04:25:10.911Z,90.60
2017-08-01T04:27:38.508Z,90.50
2017-08-01T04:30:06.102Z,90.30
2017-08-01T04:32:33.671Z,90.30
2017-08-01T04:35:01.378Z,90.40
2017-08-01T04:37:28.918Z,90.50
2017-08-01T04:39:56.691Z,90.50
2017-08-01T04:42:24.236Z,90.40
2017-08-01T04:45:03.635Z,90.30
2017-08-01T04:47:31.188Z,90.40
2017-08-01T04:49:59.121Z,90.30
2017-08-01T04:52:26.694Z,90.50
2017-08-01T04:54:54.232Z,90.40
2017-08-01T04:57:21.808Z,90.40
2017-08-01T04:59:49.369Z,90.30
2017-08-01T05:02:16.950Z,90.20
2017-08-01T05:04:44.489Z,90.30
2017-08-01T05:07:12.205Z,90.10
2017-08-01T05:09:39.749Z,90.00
2017-08-01T05:12:08.057Z,90.20
2017-08-01T05:14:35.630Z,90.20
2017-08-01T05:17:03.189Z,90.20
2017-08-01T05:19:30.737Z,90.30
2017-08-01T05:21:58.373Z,90.30
2017-08-01T05:24:25.940Z,90.30
2017-08-01T05:26:53.522Z,90.30
2017-08-01T05:29:21.076Z,90.30
2017-08-01T05:31:48.608Z,90.00
2017-08-01T05:34:16.222Z,89.90
2017-08-01T05:36:44.054Z,89.80
2017-08-01T05:39:11.589Z,89.80
2017-08-01T05:41:39.160Z,89.30
2017-08-01T05:44:06.702Z,89.60
2017-08-01T05:46:34.255Z,88.90
2017-08-01T05:49:01.905Z,87.90
2017-08-01T05:51:30.249Z,87.20
2017-08-01T05:53:57.959Z,87.10
2017-08-01T05:56:25.634Z,87.00
2017-08-01T05:58:53.210Z,86.80
2017-08-01T06:01:20.790Z,86.40
2017-08-01T06:03:48.355Z,86.60
2017-08-01T06:06:15.944Z,87.00
2017-08-01T06:08:44.258Z,86.80
2017-08-01T06:11:11.806Z,86.80
2017-08-01T06:13:39.407Z,86.90
2017-08-01T06:16:06.946Z,86.70
2017-08-01T06:18:34.521Z,86.40
2017-08-01T06:21:02.133Z,86.10
2017-08-01T06:23:29.712Z,86.30
2017-08-01T06:25:57.300Z,86.10
2017-08-01T06:28:24.881Z,86.20
2017-08-01T06:30:53.208Z,85.60
2017-08-01T06:33:20.755Z,85.50
2017-08-01T06:35:48.340Z,86.10
2017-08-01T06:38:15.885Z,86.10
2017-08-01T06:40:43.460Z,85.70
2017-08-01T06:43:11.003Z,85.60
2017-08-01T06:45:38.586Z,85.00
2017-08-01T06:48:06.170Z,84.70
2017-08-01T06:50:34.577Z,83.20
2017-08-01T06:53:02.118Z,83.10
2017-08-01T06:55:29.719Z,83.30
2017-08-01T06:57:57.263Z,81.70
2017-08-01T07:00:24.813Z,80.80
2017-08-01T07:02:52.402Z,81.50
2017-08-01T07:05:19.943Z,80.50
2017-08-01T07:07:47.516Z,80.80
2017-08-01T07:10:15.069Z,81.10
2017-08-01T07:12:42.758Z,79.70
2017-08-01T07:15:10.301Z,78.20
2017-08-01T07:17:37.894Z,73.60
2017-08-01T07:20:05.685Z,71.20
2017-08-01T07:22:33.241Z,67.40
2017-08-01T07:25:00.980Z,62.00
2017-08-01T07:27:28.518Z,58.10
2017-08-01T07:29:56.835Z,53.40
2017-08-01T07:32:24.422Z,52.70
2017-08-01T07:34:52.001Z,51.40
2017-08-01T07:37:19.641Z,50.80
2017-08-01T07:39:47.239Z,48.90
2017-08-01T07:42:15.603Z,52.70
2017-08-01T07:44:43.147Z,52.60
2017-08-01T07:47:10.701Z,57.00
2017-08-01T07:49:38.282Z,60.70
2017-08-01T07:52:06.659Z,60.80
2017-08-01T07:54:34.281Z,60.80
2017-08-01T07:57:01.818Z,59.40
2017-08-01T07:59:29.401Z,60.10
2017-08-01T08:01:56.992Z,60.60
2017-08-01T08:04:25.402Z,61.30
2017-08-01T08:06:53.010Z,61.30
2017-08-01T08:09:20.582Z,60.70
2017-08-01T08:11:48.121Z,61.90
2017-08-01T08:14:15.717Z,61.40
2017-08-01T08:16:43.274Z,60.80
2017-08-01T08:19:11.575Z,62.80
2017-08-01T08:24:13.661Z,65.60
2017-08-01T08:26:41.229Z,63.10
2017-08-01T08:29:08.777Z,61.90
2017-08-01T08:31:36.377Z,62.40
2017-08-01T08:34:03.963Z,62.30
2017-08-01T08:36:32.260Z,63.30
2017-08-01T08:38:59.815Z,63.30
2017-08-01T08:41:27.382Z,64.40
2017-08-01T08:43:54.935Z,65.90
2017-08-01T08:46:22.645Z,64.60
2017-08-01T08:48:50.192Z,64.30
2017-08-01T08:51:17.790Z,63.80
2017-08-01T08:53:46.096Z,63.30
2017-08-01T08:56:13.637Z,63.20
2017-08-01T08:58:41.210Z,63.00
2017-08-01T09:01:08.770Z,63.50
2017-08-01T09:03:36.355Z,61.40
2017-08-01T09:06:03.896Z,62.40
2017-08-01T09:08:31.494Z,61.80
2017-08-01T09:10:59.112Z,62.00
2017-08-01T09:13:26.659Z,61.10
2017-08-01T09:15:54.325Z,63.30
2017-08-01T09:18:21.862Z,59.30
2017-08-01T09:20:49.398Z,60.10
2017-08-01T09:23:17.801Z,60.20
2017-08-01T09:25:45.373Z,60.10
2017-08-01T09:28:13.045Z,61.30
2017-08-01T09:30:40.741Z,59.70
2017-08-01T09:33:08.283Z,61.50
2017-08-01T09:35:35.877Z,59.70
2017-08-01T09:38:04.181Z,59.20
2017-08-01T09:40:31.854Z,59.10
2017-08-01T09:42:59.553Z,58.10
2017-08-01T09:45:27.096Z,55.30
2017-08-01T09:47:54.676Z,56.00
2017-08-01T09:50:23.109Z,55.60
2017-08-01T09:52:50.705Z,56.50
2017-08-01T09:55:19.042Z,56.90
2017-08-01T09:57:46.591Z,56.20
2017-08-01T10:00:14.158Z,55.80
2017-08-01T10:02:41.692Z,56.00
2017-08-01T10:05:09.297Z,53.20
2017-08-01T10:07:36.838Z,55.60
2017-08-01T10:10:04.388Z,54.80
2017-08-01T10:12:32.041Z,52.80
2017-08-01T10:14:59.585Z,52.20
2017-08-01T10:17:27.180Z,52.60
2017-08-01T10:19:54.750Z,51.80
2017-08-01T10:22:22.331Z,53.10
2017-08-01T10:24:50.065Z,53.80
2017-08-01T10:27:17.781Z,53.10
2017-08-01T10:29:45.335Z,55.70
2017-08-01T10:32:13.728Z,51.90
2017-08-01T10:34:41.297Z,51.90
2017-08-01T10:37:08.824Z,50.80
2017-08-01T10:39:37.132Z,51.90
2017-08-01T10:42:04.730Z,51.90
2017-08-01T10:44:32.271Z,51.90
2017-08-01T10:46:59.820Z,50.40
2017-08-01T10:49:27.388Z,52.10
2017-08-01T10:51:54.930Z,51.00
2017-08-01T10:54:22.508Z,50.70
2017-08-01T10:56:50.066Z,51.50
2017-08-01T10:59:17.693Z,50.70
2017-08-01T11:01:45.381Z,51.00
2017-08-01T11:04:12.928Z,51.00
2017-08-01T11:06:40.575Z,52.60
2017-08-01T11:09:08.148Z,51.30
2017-08-01T11:11:35.768Z,50.70
2017-08-01T11:14:03.398Z,49.60
2017-08-01T11:16:30.978Z,50.00
2017-08-01T11:18:59.312Z,54.20
2017-08-01T11:21:26.866Z,54.20
2017-08-01T11:23:54.528Z,51.00
2017-08-01T11:26:22.085Z,50.60
2017-08-01T11:28:49.689Z,53.70
2017-08-01T11:31:18.307Z,53.30
2017-08-01T11:33:45.836Z,53.30
2017-08-01T11:36:14.101Z,53.50
2017-08-01T11:38:42.451Z,55.00
2017-08-01T11:41:09.995Z,54.30
2017-08-01T11:43:37.591Z,51.00
2017-08-01T11:46:05.936Z,53.80
2017-08-01T11:48:33.517Z,53.40
2017-08-01T11:51:01.097Z,52.80
2017-08-01T11:53:29.452Z,49.80
2017-08-01T11:55:57.033Z,50.80
2017-08-01T11:58:24.736Z,51.20
2017-08-01T12:00:52.294Z,53.20
2017-08-01T12:03:19.885Z,49.80
2017-08-01T12:05:47.462Z,50.10
2017-08-01T12:08:15.778Z,50.20
2017-08-01T12:10:43.347Z,50.20
2017-08-01T12:13:10.884Z,48.90
2017-08-01T12:15:38.469Z,49.20
2017-08-01T12:18:06.027Z,48.60
2017-08-01T12:20:33.569Z,48.30
2017-08-01T12:23:01.149Z,48.90
2017-08-01T12:25:28.689Z,47.60
2017-08-01T12:27:56.279Z,45.40
2017-08-01T12:30:23.827Z,48.10
2017-08-01T12:32:51.438Z,47.90
2017-08-01T12:35:19.021Z,48.90
2017-08-01T12:37:46.590Z,48.30
2017-08-01T12:40:14.167Z,48.10
2017-08-01T12:42:41.710Z,48.80
2017-08-01T12:45:09.258Z,49.80
2017-08-01T12:47:36.834Z,48.70
2017-08-01T12:50:04.362Z,48.30
2017-08-01T12:52:31.915Z,47.90
2017-08-01T12:54:59.482Z,49.10
2017-08-01T12:57:27.122Z,49.50
2017-08-01T12:59:54.704Z,49.80
2017-08-01T13:02:22.256Z,50.60
2017-08-01T13:04:49.850Z,51.40
2017-08-01T13:07:17.389Z,50.50
2017-08-01T13:09:44.939Z,50.40
2017-08-01T13:12:12.525Z,50.30
2017-08-01T13:14:40.082Z,49.60
2017-08-01T13:17:07.629Z,50.30
2017-08-01T13:19:35.301Z,52.30
2017-08-01T13:22:02.923Z,48.60
2017-08-01T13:24:30.468Z,49.80
2017-08-01T13:26:58.061Z,49.20
2017-08-01T13:29:25.606Z,48.50
2017-08-01T13:31:53.152Z,48.10
2017-08-01T13:34:20.719Z,48.10
2017-08-01T13:36:48.326Z,49.30
2017-08-01T13:39:15.903Z,50.40
2017-08-01T13:41:44.217Z,49.90
2017-08-01T13:44:11.776Z,49.90
2017-08-01T13:46:39.353Z,49.80
2017-08-01T13:49:06.890Z,47.70
2017-08-01T13:51:34.432Z,47.70
2017-08-01T13:54:02.068Z,48.50
2017-08-01T13:56:30.383Z,47.00
2017-08-01T13:58:57.957Z,46.80
2017-08-01T14:01:25.497Z,46.60
2017-08-01T14:03:53.030Z,46.10
2017-08-01T14:06:20.602Z,47.50
2017-08-01T14:08:48.158Z,46.80
2017-08-01T14:11:15.738Z,47.30
2017-08-01T14:13:43.287Z,46.60
2017-08-01T14:16:10.861Z,47.40
2017-08-01T14:18:38.428Z,47.80
2017-08-01T14:21:05.961Z,46.90
2017-08-01T14:23:33.532Z,45.60
2017-08-01T14:26:01.084Z,45.20
2017-08-01T14:28:28.716Z,45.60
2017-08-01T14:30:56.252Z,46.20
2017-08-01T14:33:24.745Z,46.40
2017-08-01T14:35:52.449Z,46.40
2017-08-01T14:38:20.013Z,47.30
2017-08-01T14:40:49.593Z,46.20
2017-08-01T14:43:17.169Z,47.40
2017-08-01T14:45:44.736Z,46.20
2017-08-01T14:48:12.325Z,48.20
2017-08-01T14:50:40.779Z,49.40
2017-08-01T14:53:08.393Z,49.90
2017-08-01T14:55:35.944Z,50.80
2017-08-01T14:58:03.568Z,50.00
2017-08-01T15:00:31.194Z,48.70
2017-08-01T15:02:58.746Z,49.80
2017-08-01T15:05:26.374Z,51.70
2017-08-01T15:07:53.916Z,54.20
2017-08-01T15:10:22.226Z,54.50
2017-08-01T15:12:49.802Z,54.50
2017-08-01T15:15:17.346Z,55.20
2017-08-01T15:17:44.940Z,56.70
2017-08-01T15:20:12.488Z,55.20
2017-08-01T15:22:40.029Z,55.00
2017-08-01T15:25:07.602Z,55.20
2017-08-01T15:27:35.153Z,53.60
2017-08-01T15:30:02.742Z,54.10
2017-08-01T15:32:30.289Z,55.40
2017-08-01T15:34:57.843Z,56.40
2017-08-01T15:37:25.438Z,55.60
2017-08-01T15:39:53.771Z,54.50
2017-08-01T15:42:21.305Z,54.40
2017-08-01T15:44:48.891Z,55.80
2017-08-01T15:47:16.447Z,56.70
2017-08-01T15:49:44.033Z,57.30
2017-08-01T15:52:11.578Z,57.50
2017-08-01T15:54:39.133Z,58.20
2017-08-01T15:57:06.729Z,58.50
2017-08-01T15:59:35.031Z,58.20
2017-08-01T16:02:02.601Z,58.10
2017-08-01T16:04:30.148Z,58.00
2017-08-01T16:06:57.749Z,57.80
2017-08-01T16:10:20.401Z,58.70
2017-08-01T16:12:48.064Z,58.60
2017-08-01T16:15:15.712Z,62.40
2017-08-01T16:17:43.311Z,63.40
2017-08-01T16:20:11.631Z,66.00
2017-08-01T16:22:39.237Z,66.00
2017-08-01T16:25:07.563Z,66.80
2017-08-01T16:27:35.118Z,66.80
2017-08-01T16:30:02.697Z,66.30
2017-08-01T16:32:30.283Z,66.30
2017-08-01T16:34:58.603Z,67.70
2017-08-01T16:37:26.157Z,67.70
2017-08-01T16:39:53.860Z,68.80
2017-08-01T16:42:21.428Z,69.70
2017-08-01T16:44:49.023Z,70.60
2017-08-01T16:47:16.573Z,71.40
2017-08-01T16:49:44.133Z,71.40
2017-08-01T16:52:11.716Z,72.40
2017-08-01T16:54:39.269Z,72.30
2017-08-01T16:57:06.855Z,71.90
2017-08-01T16:59:34.412Z,74.10
2017-08-01T17:02:02.001Z,74.90
2017-08-01T17:04:30.347Z,80.10
2017-08-01T17:06:57.984Z,79.40
2017-08-01T17:09:25.643Z,79.80
2017-08-01T17:11:53.181Z,79.40
2017-08-01T17:14:20.790Z,80.00
2017-08-01T17:16:48.361Z,79.60
2017-08-01T17:19:15.994Z,80.00
2017-08-01T17:21:43.636Z,80.20
2017-08-01T17:24:11.183Z,80.50
2017-08-01T17:26:38.784Z,80.60
2017-08-01T17:29:06.344Z,80.00
2017-08-01T17:31:33.898Z,79.40
2017-08-01T17:34:01.499Z,81.00
2017-08-01T17:36:29.047Z,83.20
2017-08-01T17:38:56.609Z,81.90
2017-08-01T17:41:24.953Z,79.20
2017-08-01T17:43:52.687Z,79.10
2017-08-01T17:46:20.259Z,80.10
2017-08-01T17:48:47.869Z,81.40
2017-08-01T17:51:15.435Z,82.50
2017-08-01T17:53:43.018Z,86.10
2017-08-01T17:56:10.578Z,90.60
2017-08-01T17:58:38.174Z,91.30
2017-08-01T18:01:05.803Z,95.20
2017-08-01T18:03:33.368Z,92.20
2017-08-01T18:06:01.064Z,93.30
2017-08-01T18:08:28.626Z,95.00
2017-08-01T18:10:57.048Z,94.90
2017-08-01T18:13:24.657Z,94.90
2017-08-01T18:15:52.310Z,95.70
2017-08-01T18:18:20.012Z,93.10
2017-08-01T18:20:47.726Z,92.90
2017-08-01T18:23:15.557Z,93.90
2017-08-01T18:25:43.288Z,94.70
2017-08-01T18:28:11.107Z,95.50
2017-08-01T18:30:38.788Z,94.90
2017-08-01T18:33:06.450Z,94.50
2017-08-01T18:35:34.372Z,95.40
2017-08-01T18:38:02.336Z,94.50
2017-08-01T18:40:30.209Z,94.40
2017-08-01T18:42:58.069Z,93.60
2017-08-01T18:45:25.932Z,93.90
2017-08-01T18:47:53.766Z,94.50
2017-08-01T18:50:21.866Z,94.70
2017-08-01T18:52:49.833Z,94.30
2017-08-01T18:55:17.904Z,95.60
2017-08-01T18:57:45.874Z,94.90
2017-08-01T19:00:13.838Z,95.50
2017-08-01T19:02:42.005Z,97.60
2017-08-01T19:05:09.979Z,99.90
2017-08-01T19:07:38.153Z,96.80
2017-08-01T19:10:06.120Z,98.70
2017-08-01T19:12:34.085Z,96.00
2017-08-01T19:15:01.955Z,97.70
2017-08-01T19:17:29.920Z,99.00
2017-08-01T19:19:57.887Z,99.30
2017-08-01T19:22:25.855Z,99.70
2017-08-01T19:24:53.929Z,99.20
2017-08-01T19:27:21.896Z,97.50
2017-08-01T19:29:49.862Z,96.40
2017-08-01T19:32:17.726Z,95.40
2017-08-01T19:34:45.591Z,94.70
2017-08-01T19:37:13.562Z,94.10
2017-08-01T19:39:41.523Z,96.00
2017-08-01T19:42:09.492Z,96.70
2017-08-01T19:44:37.459Z,97.40
2017-08-01T19:47:05.430Z,97.70
2017-08-01T19:49:33.398Z,98.80
2017-08-01T19:52:01.263Z,97.90
2017-08-01T19:54:29.192Z,99.20
2017-08-01T19:56:57.094Z,99.90
2017-08-01T19:59:25.162Z,99.90
2017-08-01T20:01:53.033Z,99.90
2017-08-01T20:04:20.893Z,98.90
2017-08-01T20:06:48.764Z,99.90
2017-08-01T20:09:16.728Z,97.90
2017-08-01T20:11:44.590Z,97.30
2017-08-01T20:14:12.560Z,96.50
2017-08-01T20:16:40.498Z,96.30
2017-08-01T20:19:08.443Z,95.30
2017-08-01T20:21:36.158Z,96.90
2017-08-01T20:24:03.824Z,98.50
2017-08-01T20:26:31.684Z,98.90
2017-08-01T20:28:59.323Z,99.60
2017-08-01T20:31:27.083Z,99.90
2017-08-01T20:33:54.650Z,99.90
2017-08-01T20:36:22.218Z,99.90
2017-08-01T20:38:49.799Z,99.90
2017-08-01T20:41:17.365Z,99.90
2017-08-01T20:43:44.969Z,98.40
2017-08-01T20:46:13.289Z,98.70
2017-08-01T20:48:40.860Z,98.70
2017-08-01T20:51:08.490Z,99.70
2017-08-01T20:53:36.034Z,99.90
2017-08-01T20:56:03.633Z,99.60
2017-08-01T20:58:31.192Z,99.10
2017-08-01T21:00:58.740Z,98.40
2017-08-01T21:03:26.351Z,97.80
2017-08-01T21:05:54.664Z,97.20
2017-08-01T21:08:22.216Z,97.20
2017-08-01T21:10:49.796Z,98.00
2017-08-01T21:13:17.386Z,98.30
2017-08-01T21:15:44.962Z,97.70
2017-08-01T21:18:13.283Z,97.70
2017-08-01T21:20:40.836Z,97.70
2017-08-01T21:23:08.382Z,98.30
2017-08-01T21:25:35.935Z,98.50
2017-08-01T21:28:03.556Z,99.70
2017-08-01T21:30:31.875Z,99.90
2017-08-01T21:32:59.425Z,99.90
2017-08-01T21:35:27.008Z,99.90
2017-08-01T21:37:54.791Z,99.90
2017-08-01T21:40:22.344Z,99.90
2017-08-01T21:42:50.004Z,99.80
2017-08-01T21:45:17.557Z,99.20
2017-08-01T21:47:45.192Z,99.00
2017-08-01T21:50:12.773Z,98.50
2017-08-01T21:52:40.337Z,98.30
2017-08-01T21:55:07.922Z,98.80
2017-08-01T21:57:36.289Z,98.40
2017-08-01T22:00:03.836Z,98.30
2017-08-01T22:02:31.387Z,99.90
2017-08-01T22:04:58.967Z,99.90
2017-08-01T22:07:26.535Z,99.90
2017-08-01T22:09:54.885Z,99.90
2017-08-01T22:12:22.445Z,99.90
2017-08-01T22:14:49.986Z,99.90
2017-08-01T22:17:17.561Z,98.00
2017-08-01T22:19:45.118Z,98.00
2017-08-01T22:22:12.774Z,99.20
2017-08-01T22:24:40.485Z,98.00
2017-08-01T22:27:08.038Z,98.40
2017-08-01T22:29:35.633Z,99.90
2017-08-01T22:32:03.180Z,99.00
2017-08-01T22:34:30.782Z,99.90
2017-08-01T22:36:58.457Z,98.50
2017-08-01T22:39:26.772Z,97.20
2017-08-01T22:41:54.517Z,97.20
2017-08-01T22:44:22.162Z,96.80
2017-08-01T22:46:50.474Z,96.60
2017-08-01T22:49:18.055Z,96.60
2017-08-01T22:51:45.597Z,97.90
2017-08-01T22:54:13.278Z,99.20
2017-08-01T22:56:40.812Z,99.90
2017-08-01T22:59:08.361Z,99.70
2017-08-01T23:01:35.943Z,99.00
2017-08-01T23:04:03.484Z,99.80
2017-08-01T23:06:31.078Z,98.30
2017-08-01T23:08:58.639Z,99.00
2017-08-01T23:11:26.182Z,97.20
2017-08-01T23:13:53.853Z,96.30
2017-08-01T23:16:21.420Z,96.80
2017-08-01T23:18:49.013Z,97.50
2017-08-01T23:21:16.585Z,99.30
2017-08-01T23:23:44.129Z,97.20
2017-08-01T23:26:11.734Z,97.00
2017-08-01T23:28:39.287Z,97.60
2017-08-01T23:31:06.880Z,99.10
2017-08-01T23:33:35.201Z,99.90
2017-08-01T23:36:02.768Z,99.90
2017-08-01T23:38:30.340Z,99.90
2017-08-01T23:40:57.903Z,99.90
2017-08-01T23:43:25.483Z,99.90
2017-08-01T23:45:53.029Z,99.90
2017-08-01T23:48:20.568Z,98.40
2017-08-01T23:50:48.178Z,97.70
2017-08-01T23:53:16.486Z,97.70
2017-08-01T23:55:44.147Z,97.70
2017-08-01T23:58:11.721Z,98.90
